sensor_id;sensor_type;location;lat;lon;timestamp;pressure;altitude;pressure_sealevel;temperature;humidity
63347;BME280;49472;49.880;8.650;2023-01-31T00:01:20;100989.81;;;10.97;nan
63347;BME280;49472;49.880;8.650;2023-01-31T00:03:47;100994.91;;;11.11;nan
63347;BME280;49472;49.880;8.650;2023-01-31T00:06:21;100994.25;;;11.36;nan
63347;BME280;49472;49.880;8.650;2023-01-31T00:08:48;100990.22;;;11.46;nan
63347;BME280;49472;49.880;8.650;2023-01-31T00:11:16;100989.34;;;11.19;nan
63347;BME280;49472;49.880;8.650;2023-01-31T00:13:42;100988.97;;;11.25;nan
63347;BME280;49472;49.880;8.650;2023-01-31T00:16:08;100988.59;;;11.17;nan
63347;BME280;49472;49.880;8.650;2023-01-31T00:18:35;100984.50;;;11.00;nan
63347;BME280;49472;49.880;8.650;2023-01-31T00:21:13;100985.59;;;10.96;nan
63347;BME280;49472;49.880;8.650;2023-01-31T00:23:39;100982.50;;;11.05;nan
63347;BME280;49472;49.880;8.650;2023-01-31T00:28:38;100983.75;;;10.83;nan
63347;BME280;49472;49.880;8.650;2023-01-31T00:31:04;100983.22;;;10.93;nan
63347;BME280;49472;49.880;8.650;2023-01-31T00:33:30;100981.84;;;11.01;nan
63347;BME280;49472;49.880;8.650;2023-01-31T00:35:55;100974.50;;;10.52;nan
63347;BME280;49472;49.880;8.650;2023-01-31T00:38:20;100976.84;;;10.25;nan
63347;BME280;49472;49.880;8.650;2023-01-31T00:40:52;100983.34;;;10.00;nan
63347;BME280;49472;49.880;8.650;2023-01-31T00:43:18;100987.47;;;9.87;nan
63347;BME280;49472;49.880;8.650;2023-01-31T00:45:43;100989.44;;;9.66;nan
63347;BME280;49472;49.880;8.650;2023-01-31T00:48:08;100995.28;;;9.84;nan
63347;BME280;49472;49.880;8.650;2023-01-31T00:50:34;100990.03;;;9.71;nan
63347;BME280;49472;49.880;8.650;2023-01-31T00:52:59;100984.75;;;9.59;nan
63347;BME280;49472;49.880;8.650;2023-01-31T00:55:25;100982.53;;;9.68;nan
63347;BME280;49472;49.880;8.650;2023-01-31T00:57:50;100984.03;;;9.72;nan
63347;BME280;49472;49.880;8.650;2023-01-31T01:00:16;100984.44;;;10.27;nan
63347;BME280;49472;49.880;8.650;2023-01-31T01:02:41;100994.63;;;9.96;nan
63347;BME280;49472;49.880;8.650;2023-01-31T01:05:07;101004.75;;;9.34;nan
63347;BME280;49472;49.880;8.650;2023-01-31T01:07:32;100985.50;;;9.76;nan
63347;BME280;49472;49.880;8.650;2023-01-31T01:09:57;100984.66;;;9.92;nan
63347;BME280;49472;49.880;8.650;2023-01-31T01:12:23;100988.66;;;10.12;nan
63347;BME280;49472;49.880;8.650;2023-01-31T01:14:48;101002.56;;;9.60;nan
63347;BME280;49472;49.880;8.650;2023-01-31T01:17:13;101000.44;;;9.19;nan
63347;BME280;49472;49.880;8.650;2023-01-31T01:19:38;100998.59;;;9.70;nan
63347;BME280;49472;49.880;8.650;2023-01-31T01:22:04;100999.25;;;9.42;nan
63347;BME280;49472;49.880;8.650;2023-01-31T01:24:29;101001.97;;;9.39;nan
63347;BME280;49472;49.880;8.650;2023-01-31T01:26:54;101011.16;;;9.26;nan
63347;BME280;49472;49.880;8.650;2023-01-31T01:29:20;101002.28;;;10.28;nan
63347;BME280;49472;49.880;8.650;2023-01-31T01:31:45;101008.41;;;9.62;nan
63347;BME280;49472;49.880;8.650;2023-01-31T01:34:13;101010.28;;;10.52;nan
63347;BME280;49472;49.880;8.650;2023-01-31T01:36:39;101005.50;;;11.34;nan
63347;BME280;49472;49.880;8.650;2023-01-31T01:39:06;101009.97;;;11.44;nan
63347;BME280;49472;49.880;8.650;2023-01-31T01:41:33;101011.63;;;10.88;nan
63347;BME280;49472;49.880;8.650;2023-01-31T01:44:00;101014.13;;;11.18;nan
63347;BME280;49472;49.880;8.650;2023-01-31T01:51:48;101011.06;;;9.11;nan
63347;BME280;49472;49.880;8.650;2023-01-31T01:54:18;101026.00;;;8.84;nan
63347;BME280;49472;49.880;8.650;2023-01-31T01:56:48;101019.38;;;9.31;nan
63347;BME280;49472;49.880;8.650;2023-01-31T01:59:25;101021.53;;;9.39;nan
63347;BME280;49472;49.880;8.650;2023-01-31T02:01:54;101023.97;;;9.42;nan
63347;BME280;49472;49.880;8.650;2023-01-31T02:04:24;101017.63;;;9.16;nan
63347;BME280;49472;49.880;8.650;2023-01-31T02:06:52;101019.69;;;9.09;nan
63347;BME280;49472;49.880;8.650;2023-01-31T02:09:24;101017.50;;;9.34;nan
63347;BME280;49472;49.880;8.650;2023-01-31T02:11:55;101013.91;;;9.54;nan
63347;BME280;49472;49.880;8.650;2023-01-31T02:14:20;101025.44;;;9.12;nan
63347;BME280;49472;49.880;8.650;2023-01-31T02:16:46;101026.91;;;9.34;nan
63347;BME280;49472;49.880;8.650;2023-01-31T02:19:28;101023.91;;;9.26;nan
63347;BME280;49472;49.880;8.650;2023-01-31T02:22:11;101024.69;;;9.44;nan
63347;BME280;49472;49.880;8.650;2023-01-31T02:25:09;101027.81;;;9.16;nan
63347;BME280;49472;49.880;8.650;2023-01-31T02:30:50;101017.97;;;9.74;nan
63347;BME280;49472;49.880;8.650;2023-01-31T02:36:28;101018.91;;;9.40;nan
63347;BME280;49472;49.880;8.650;2023-01-31T02:44:54;101018.66;;;9.29;nan
63347;BME280;49472;49.880;8.650;2023-01-31T02:52:53;101005.19;;;9.90;nan
63347;BME280;49472;49.880;8.650;2023-01-31T02:55:29;101005.44;;;9.70;nan
63347;BME280;49472;49.880;8.650;2023-01-31T02:58:16;101011.94;;;9.10;nan
63347;BME280;49472;49.880;8.650;2023-01-31T03:00:45;101013.44;;;9.95;nan
63347;BME280;49472;49.880;8.650;2023-01-31T03:03:37;101009.88;;;9.66;nan
63347;BME280;49472;49.880;8.650;2023-01-31T03:11:58;101016.38;;;9.40;nan
63347;BME280;49472;49.880;8.650;2023-01-31T03:14:33;101029.25;;;9.21;nan
63347;BME280;49472;49.880;8.650;2023-01-31T03:17:11;101016.00;;;9.15;nan
63347;BME280;49472;49.880;8.650;2023-01-31T03:23:02;101022.25;;;9.90;nan
63347;BME280;49472;49.880;8.650;2023-01-31T03:25:32;101037.06;;;9.18;nan
63347;BME280;49472;49.880;8.650;2023-01-31T03:28:01;101042.69;;;9.25;nan
63347;BME280;49472;49.880;8.650;2023-01-31T03:30:36;101046.88;;;9.26;nan
63347;BME280;49472;49.880;8.650;2023-01-31T03:35:41;101065.06;;;9.53;nan
63347;BME280;49472;49.880;8.650;2023-01-31T03:38:32;101065.56;;;9.60;nan
63347;BME280;49472;49.880;8.650;2023-01-31T03:41:16;101066.16;;;9.65;nan
63347;BME280;49472;49.880;8.650;2023-01-31T03:43:53;101069.25;;;9.54;nan
63347;BME280;49472;49.880;8.650;2023-01-31T03:46:27;101062.50;;;9.69;nan
63347;BME280;49472;49.880;8.650;2023-01-31T03:48:55;101068.91;;;9.44;nan
63347;BME280;49472;49.880;8.650;2023-01-31T03:51:26;101073.16;;;9.10;nan
63347;BME280;49472;49.880;8.650;2023-01-31T03:53:55;101059.63;;;9.26;nan
63347;BME280;49472;49.880;8.650;2023-01-31T03:56:34;101057.47;;;9.51;nan
63347;BME280;49472;49.880;8.650;2023-01-31T03:59:13;101075.09;;;9.23;nan
63347;BME280;49472;49.880;8.650;2023-01-31T04:01:43;101063.50;;;8.82;nan
63347;BME280;49472;49.880;8.650;2023-01-31T04:04:13;101065.75;;;9.06;nan
63347;BME280;49472;49.880;8.650;2023-01-31T04:06:40;101067.75;;;9.17;nan
63347;BME280;49472;49.880;8.650;2023-01-31T04:09:05;101066.16;;;8.81;nan
63347;BME280;49472;49.880;8.650;2023-01-31T04:11:36;101080.53;;;8.64;nan
63347;BME280;49472;49.880;8.650;2023-01-31T04:14:02;101076.34;;;8.81;nan
63347;BME280;49472;49.880;8.650;2023-01-31T04:16:28;101082.19;;;8.65;nan
63347;BME280;49472;49.880;8.650;2023-01-31T04:18:53;101067.38;;;8.55;nan
63347;BME280;49472;49.880;8.650;2023-01-31T04:21:20;101071.59;;;8.56;nan
63347;BME280;49472;49.880;8.650;2023-01-31T04:23:46;101076.59;;;8.40;nan
63347;BME280;49472;49.880;8.650;2023-01-31T04:26:11;101074.59;;;8.27;nan
63347;BME280;49472;49.880;8.650;2023-01-31T04:28:37;101071.13;;;8.29;nan
63347;BME280;49472;49.880;8.650;2023-01-31T04:31:02;101051.59;;;8.65;nan
63347;BME280;49472;49.880;8.650;2023-01-31T04:33:27;101057.50;;;8.66;nan
63347;BME280;49472;49.880;8.650;2023-01-31T04:35:53;101056.31;;;8.37;nan
63347;BME280;49472;49.880;8.650;2023-01-31T04:38:18;101059.69;;;8.56;nan
63347;BME280;49472;49.880;8.650;2023-01-31T04:40:43;101057.50;;;8.66;nan
63347;BME280;49472;49.880;8.650;2023-01-31T04:43:09;101060.75;;;8.33;nan
63347;BME280;49472;49.880;8.650;2023-01-31T04:45:34;101057.19;;;8.55;nan
63347;BME280;49472;49.880;8.650;2023-01-31T04:47:59;101057.91;;;8.39;nan
63347;BME280;49472;49.880;8.650;2023-01-31T04:50:25;101053.22;;;8.66;nan
63347;BME280;49472;49.880;8.650;2023-01-31T04:52:50;101045.38;;;8.71;nan
63347;BME280;49472;49.880;8.650;2023-01-31T04:55:17;101037.88;;;8.85;nan
63347;BME280;49472;49.880;8.650;2023-01-31T04:57:42;101027.50;;;8.88;nan
63347;BME280;49472;49.880;8.650;2023-01-31T05:00:08;101022.69;;;8.65;nan
63347;BME280;49472;49.880;8.650;2023-01-31T05:02:33;101008.88;;;9.04;nan
63347;BME280;49472;49.880;8.650;2023-01-31T05:04:59;101018.81;;;8.58;nan
63347;BME280;49472;49.880;8.650;2023-01-31T05:07:24;101015.16;;;8.63;nan
63347;BME280;49472;49.880;8.650;2023-01-31T05:09:49;101032.16;;;8.45;nan
63347;BME280;49472;49.880;8.650;2023-01-31T05:12:15;101026.34;;;8.24;nan
63347;BME280;49472;49.880;8.650;2023-01-31T05:14:40;101021.28;;;8.59;nan
63347;BME280;49472;49.880;8.650;2023-01-31T05:17:05;101020.72;;;9.38;nan
63347;BME280;49472;49.880;8.650;2023-01-31T05:19:31;101021.38;;;8.40;nan
63347;BME280;49472;49.880;8.650;2023-01-31T05:21:56;101027.81;;;8.29;nan
63347;BME280;49472;49.880;8.650;2023-01-31T05:24:30;101020.41;;;8.60;nan
63347;BME280;49472;49.880;8.650;2023-01-31T05:26:57;101015.75;;;8.68;nan
63347;BME280;49472;49.880;8.650;2023-01-31T05:29:24;101020.47;;;8.76;nan
63347;BME280;49472;49.880;8.650;2023-01-31T05:31:55;101031.81;;;8.71;nan
63347;BME280;49472;49.880;8.650;2023-01-31T05:34:21;101020.63;;;8.73;nan
63347;BME280;49472;49.880;8.650;2023-01-31T05:36:48;101021.66;;;8.69;nan
63347;BME280;49472;49.880;8.650;2023-01-31T05:39:13;101018.66;;;8.78;nan
63347;BME280;49472;49.880;8.650;2023-01-31T05:41:38;101017.63;;;8.29;nan
63347;BME280;49472;49.880;8.650;2023-01-31T05:44:04;101016.72;;;8.83;nan
63347;BME280;49472;49.880;8.650;2023-01-31T05:46:29;101017.38;;;8.35;nan
63347;BME280;49472;49.880;8.650;2023-01-31T05:48:55;101007.28;;;8.14;nan
63347;BME280;49472;49.880;8.650;2023-01-31T05:51:20;101014.06;;;8.33;nan
63347;BME280;49472;49.880;8.650;2023-01-31T05:53:45;101013.66;;;8.23;nan
63347;BME280;49472;49.880;8.650;2023-01-31T05:56:12;101017.09;;;8.76;nan
63347;BME280;49472;49.880;8.650;2023-01-31T05:58:38;101013.25;;;8.13;nan
63347;BME280;49472;49.880;8.650;2023-01-31T06:01:03;101019.66;;;8.76;nan
63347;BME280;49472;49.880;8.650;2023-01-31T06:03:28;101017.38;;;8.35;nan
63347;BME280;49472;49.880;8.650;2023-01-31T06:05:54;101029.03;;;8.39;nan
63347;BME280;49472;49.880;8.650;2023-01-31T06:08:19;101016.50;;;8.53;nan
63347;BME280;49472;49.880;8.650;2023-01-31T06:10:44;101014.09;;;8.14;nan
63347;BME280;49472;49.880;8.650;2023-01-31T06:13:10;101017.63;;;8.29;nan
63347;BME280;49472;49.880;8.650;2023-01-31T06:15:35;101016.16;;;8.24;nan
63347;BME280;49472;49.880;8.650;2023-01-31T06:18:01;101005.03;;;8.62;nan
63347;BME280;49472;49.880;8.650;2023-01-31T06:20:27;100998.59;;;9.05;nan
63347;BME280;49472;49.880;8.650;2023-01-31T06:22:53;101001.78;;;8.93;nan
63347;BME280;49472;49.880;8.650;2023-01-31T06:25:18;101003.06;;;8.50;nan
63347;BME280;49472;49.880;8.650;2023-01-31T06:27:43;101007.91;;;8.19;nan
63347;BME280;49472;49.880;8.650;2023-01-31T06:30:09;101004.63;;;8.52;nan
63347;BME280;49472;49.880;8.650;2023-01-31T06:32:35;101009.13;;;8.64;nan
63347;BME280;49472;49.880;8.650;2023-01-31T06:35:02;101008.47;;;8.61;nan
63347;BME280;49472;49.880;8.650;2023-01-31T06:37:28;101003.72;;;7.99;nan
63347;BME280;49472;49.880;8.650;2023-01-31T06:39:53;101012.00;;;7.86;nan
63347;BME280;49472;49.880;8.650;2023-01-31T06:42:19;101006.75;;;8.61;nan
63347;BME280;49472;49.880;8.650;2023-01-31T06:44:45;100994.59;;;8.49;nan
63347;BME280;49472;49.880;8.650;2023-01-31T06:47:10;101000.22;;;8.56;nan
63347;BME280;49472;49.880;8.650;2023-01-31T06:49:37;101010.97;;;7.90;nan
63347;BME280;49472;49.880;8.650;2023-01-31T06:52:02;101010.72;;;8.13;nan
63347;BME280;49472;49.880;8.650;2023-01-31T06:54:28;101007.81;;;8.21;nan
63347;BME280;49472;49.880;8.650;2023-01-31T06:56:53;101018.25;;;7.97;nan
63347;BME280;49472;49.880;8.650;2023-01-31T06:59:18;101030.94;;;7.99;nan
63347;BME280;49472;49.880;8.650;2023-01-31T07:01:43;101031.44;;;8.05;nan
63347;BME280;49472;49.880;8.650;2023-01-31T07:04:09;101030.34;;;8.11;nan
63347;BME280;49472;49.880;8.650;2023-01-31T07:06:34;101035.19;;;7.79;nan
63347;BME280;49472;49.880;8.650;2023-01-31T07:08:59;101032.22;;;8.08;nan
63347;BME280;49472;49.880;8.650;2023-01-31T07:11:25;101042.25;;;8.11;nan
63347;BME280;49472;49.880;8.650;2023-01-31T07:13:50;101039.19;;;8.40;nan
63347;BME280;49472;49.880;8.650;2023-01-31T07:16:15;101039.78;;;8.09;nan
63347;BME280;49472;49.880;8.650;2023-01-31T07:18:41;101042.38;;;8.63;nan
63347;BME280;49472;49.880;8.650;2023-01-31T07:21:07;101050.63;;;7.76;nan
63347;BME280;49472;49.880;8.650;2023-01-31T07:23:32;101049.84;;;7.74;nan
63347;BME280;49472;49.880;8.650;2023-01-31T07:25:57;101052.94;;;8.00;nan
63347;BME280;49472;49.880;8.650;2023-01-31T07:28:26;101050.25;;;7.65;nan
63347;BME280;49472;49.880;8.650;2023-01-31T07:30:51;101046.63;;;7.90;nan
63347;BME280;49472;49.880;8.650;2023-01-31T07:33:16;101048.94;;;7.75;nan
63347;BME280;49472;49.880;8.650;2023-01-31T07:35:42;101050.66;;;7.75;nan
63347;BME280;49472;49.880;8.650;2023-01-31T07:38:07;101048.00;;;7.59;nan
63347;BME280;49472;49.880;8.650;2023-01-31T07:40:32;101056.75;;;7.91;nan
63347;BME280;49472;49.880;8.650;2023-01-31T07:42:58;101057.75;;;7.68;nan
63347;BME280;49472;49.880;8.650;2023-01-31T07:45:24;101073.94;;;7.28;nan
63347;BME280;49472;49.880;8.650;2023-01-31T07:47:50;101064.03;;;7.61;nan
63347;BME280;49472;49.880;8.650;2023-01-31T07:50:15;101058.44;;;7.91;nan
63347;BME280;49472;49.880;8.650;2023-01-31T07:52:41;101066.38;;;7.45;nan
63347;BME280;49472;49.880;8.650;2023-01-31T07:55:06;101072.22;;;7.28;nan
63347;BME280;49472;49.880;8.650;2023-01-31T07:57:32;101071.44;;;7.66;nan
63347;BME280;49472;49.880;8.650;2023-01-31T07:59:57;101082.72;;;7.21;nan
63347;BME280;49472;49.880;8.650;2023-01-31T08:02:22;101076.00;;;7.78;nan
63347;BME280;49472;49.880;8.650;2023-01-31T08:05:07;101072.97;;;7.70;nan
63347;BME280;49472;49.880;8.650;2023-01-31T08:07:33;101064.94;;;7.39;nan
63347;BME280;49472;49.880;8.650;2023-01-31T08:09:58;101076.13;;;7.56;nan
63347;BME280;49472;49.880;8.650;2023-01-31T08:12:24;101086.34;;;7.94;nan
63347;BME280;49472;49.880;8.650;2023-01-31T08:14:49;101081.94;;;7.58;nan
63347;BME280;49472;49.880;8.650;2023-01-31T08:17:14;101085.06;;;7.46;nan
63347;BME280;49472;49.880;8.650;2023-01-31T08:19:40;101074.03;;;7.45;nan
63347;BME280;49472;49.880;8.650;2023-01-31T08:22:05;101077.91;;;7.73;nan
63347;BME280;49472;49.880;8.650;2023-01-31T08:24:31;101076.50;;;7.47;nan
63347;BME280;49472;49.880;8.650;2023-01-31T08:26:57;101083.16;;;7.30;nan
63347;BME280;49472;49.880;8.650;2023-01-31T08:29:24;101075.88;;;8.00;nan
63347;BME280;49472;49.880;8.650;2023-01-31T08:31:50;101084.06;;;7.69;nan
63347;BME280;49472;49.880;8.650;2023-01-31T08:34:15;101095.25;;;7.65;nan
63347;BME280;49472;49.880;8.650;2023-01-31T08:36:42;101098.59;;;7.65;nan
63347;BME280;49472;49.880;8.650;2023-01-31T08:39:08;101080.03;;;7.63;nan
63347;BME280;49472;49.880;8.650;2023-01-31T08:41:34;101065.13;;;8.12;nan
63347;BME280;49472;49.880;8.650;2023-01-31T08:43:59;101076.69;;;8.19;nan
63347;BME280;49472;49.880;8.650;2023-01-31T08:46:27;101093.75;;;7.79;nan
63347;BME280;49472;49.880;8.650;2023-01-31T08:48:54;101073.34;;;8.55;nan
63347;BME280;49472;49.880;8.650;2023-01-31T08:51:20;101079.31;;;7.99;nan
63347;BME280;49472;49.880;8.650;2023-01-31T08:53:46;101088.19;;;8.09;nan
63347;BME280;49472;49.880;8.650;2023-01-31T08:56:12;101083.38;;;7.84;nan
63347;BME280;49472;49.880;8.650;2023-01-31T08:58:39;101081.84;;;8.18;nan
63347;BME280;49472;49.880;8.650;2023-01-31T09:01:16;101089.72;;;8.31;nan
63347;BME280;49472;49.880;8.650;2023-01-31T09:03:42;101087.19;;;7.55;nan
63347;BME280;49472;49.880;8.650;2023-01-31T09:06:13;101097.44;;;8.29;nan
63347;BME280;49472;49.880;8.650;2023-01-31T09:08:38;101083.22;;;8.25;nan
63347;BME280;49472;49.880;8.650;2023-01-31T09:11:04;101083.22;;;8.61;nan
63347;BME280;49472;49.880;8.650;2023-01-31T09:13:30;101077.09;;;8.65;nan
63347;BME280;49472;49.880;8.650;2023-01-31T09:18:23;101059.22;;;9.00;nan
63347;BME280;49472;49.880;8.650;2023-01-31T09:20:49;101052.47;;;8.82;nan
63347;BME280;49472;49.880;8.650;2023-01-31T09:23:14;101058.75;;;9.27;nan
63347;BME280;49472;49.880;8.650;2023-01-31T09:25:39;101063.44;;;9.01;nan
63347;BME280;49472;49.880;8.650;2023-01-31T09:28:04;101041.88;;;9.07;nan
63347;BME280;49472;49.880;8.650;2023-01-31T09:30:30;101045.34;;;7.98;nan
63347;BME280;49472;49.880;8.650;2023-01-31T09:32:55;101052.41;;;8.83;nan
63347;BME280;49472;49.880;8.650;2023-01-31T09:35:20;101059.69;;;9.08;nan
63347;BME280;49472;49.880;8.650;2023-01-31T09:37:46;101063.75;;;8.78;nan
63347;BME280;49472;49.880;8.650;2023-01-31T09:40:19;101066.59;;;8.89;nan
63347;BME280;49472;49.880;8.650;2023-01-31T09:42:48;101056.09;;;9.28;nan
63347;BME280;49472;49.880;8.650;2023-01-31T09:45:41;101077.53;;;8.74;nan
63347;BME280;49472;49.880;8.650;2023-01-31T09:48:14;101069.78;;;8.93;nan
63347;BME280;49472;49.880;8.650;2023-01-31T09:50:46;101083.63;;;8.88;nan
63347;BME280;49472;49.880;8.650;2023-01-31T09:53:16;101084.38;;;8.73;nan
63347;BME280;49472;49.880;8.650;2023-01-31T09:59:12;101079.22;;;9.59;nan
63347;BME280;49472;49.880;8.650;2023-01-31T10:07:02;101045.56;;;9.01;nan
63347;BME280;49472;49.880;8.650;2023-01-31T10:09:53;101055.09;;;8.98;nan
63347;BME280;49472;49.880;8.650;2023-01-31T10:12:39;101052.47;;;8.99;nan
63347;BME280;49472;49.880;8.650;2023-01-31T10:15:19;101035.38;;;8.84;nan
63347;BME280;49472;49.880;8.650;2023-01-31T10:17:58;101025.56;;;8.94;nan
63347;BME280;49472;49.880;8.650;2023-01-31T10:21:08;101037.53;;;9.42;nan
63347;BME280;49472;49.880;8.650;2023-01-31T10:26:18;101036.91;;;9.86;nan
63347;BME280;49472;49.880;8.650;2023-01-31T10:28:54;101033.59;;;9.84;nan
63347;BME280;49472;49.880;8.650;2023-01-31T10:34:02;101024.31;;;9.83;nan
63347;BME280;49472;49.880;8.650;2023-01-31T10:39:45;101011.72;;;9.64;nan
63347;BME280;49472;49.880;8.650;2023-01-31T10:42:22;101008.56;;;9.91;nan
63347;BME280;49472;49.880;8.650;2023-01-31T10:44:54;101012.06;;;9.25;nan
63347;BME280;49472;49.880;8.650;2023-01-31T10:47:26;101013.66;;;10.07;nan
63347;BME280;49472;49.880;8.650;2023-01-31T10:49:53;101013.97;;;10.16;nan
63347;BME280;49472;49.880;8.650;2023-01-31T10:57:39;100992.34;;;10.22;nan
63347;BME280;49472;49.880;8.650;2023-01-31T11:00:07;100972.72;;;10.22;nan
63347;BME280;49472;49.880;8.650;2023-01-31T11:02:37;100972.06;;;9.25;nan
63347;BME280;49472;49.880;8.650;2023-01-31T11:05:03;100951.72;;;9.87;nan
63347;BME280;49472;49.880;8.650;2023-01-31T11:07:29;100951.75;;;10.48;nan
63347;BME280;49472;49.880;8.650;2023-01-31T11:09:55;100949.78;;;10.07;nan
63347;BME280;49472;49.880;8.650;2023-01-31T11:12:50;100952.06;;;10.11;nan
63347;BME280;49472;49.880;8.650;2023-01-31T11:15:18;100957.25;;;10.70;nan
63347;BME280;49472;49.880;8.650;2023-01-31T11:17:45;100957.72;;;10.77;nan
63347;BME280;49472;49.880;8.650;2023-01-31T11:20:23;100945.34;;;11.26;nan
63347;BME280;49472;49.880;8.650;2023-01-31T11:22:52;100940.81;;;10.74;nan
63347;BME280;49472;49.880;8.650;2023-01-31T11:25:20;100936.28;;;10.35;nan
63347;BME280;49472;49.880;8.650;2023-01-31T11:27:47;100923.31;;;10.38;nan
63347;BME280;49472;49.880;8.650;2023-01-31T11:30:28;100918.50;;;10.33;nan
63347;BME280;49472;49.880;8.650;2023-01-31T11:32:53;100917.84;;;10.30;nan
63347;BME280;49472;49.880;8.650;2023-01-31T11:45:18;100889.66;;;10.31;nan
63347;BME280;49472;49.880;8.650;2023-01-31T11:47:52;100902.56;;;10.58;nan
63347;BME280;49472;49.880;8.650;2023-01-31T11:52:56;100898.31;;;10.43;nan
63347;BME280;49472;49.880;8.650;2023-01-31T11:55:22;100910.94;;;10.75;nan
63347;BME280;49472;49.880;8.650;2023-01-31T11:57:54;100892.25;;;11.30;nan
63347;BME280;49472;49.880;8.650;2023-01-31T12:00:21;100881.47;;;9.94;nan
63347;BME280;49472;49.880;8.650;2023-01-31T12:02:57;100871.50;;;10.36;nan
63347;BME280;49472;49.880;8.650;2023-01-31T12:05:34;100881.22;;;10.29;nan
63347;BME280;49472;49.880;8.650;2023-01-31T12:08:00;100863.97;;;10.33;nan
63347;BME280;49472;49.880;8.650;2023-01-31T12:12:59;100879.72;;;11.25;nan
63347;BME280;49472;49.880;8.650;2023-01-31T12:15:25;100860.03;;;10.99;nan
63347;BME280;49472;49.880;8.650;2023-01-31T12:17:52;100850.84;;;10.82;nan
63347;BME280;49472;49.880;8.650;2023-01-31T12:20:22;100855.34;;;10.64;nan
63347;BME280;49472;49.880;8.650;2023-01-31T12:23:17;100847.84;;;10.47;nan
63347;BME280;49472;49.880;8.650;2023-01-31T12:26:10;100845.50;;;10.13;nan
63347;BME280;49472;49.880;8.650;2023-01-31T12:36:38;100844.25;;;10.35;nan
63347;BME280;49472;49.880;8.650;2023-01-31T12:42:49;100818.44;;;9.81;nan
63347;BME280;49472;49.880;8.650;2023-01-31T12:53:40;100789.53;;;9.80;nan
63347;BME280;49472;49.880;8.650;2023-01-31T13:02:01;100798.50;;;10.16;nan
63347;BME280;49472;49.880;8.650;2023-01-31T13:04:39;100777.13;;;9.88;nan
63347;BME280;49472;49.880;8.650;2023-01-31T13:09:48;100786.16;;;9.80;nan
63347;BME280;49472;49.880;8.650;2023-01-31T13:12:17;100801.28;;;9.83;nan
63347;BME280;49472;49.880;8.650;2023-01-31T13:14:48;100778.56;;;9.78;nan
63347;BME280;49472;49.880;8.650;2023-01-31T13:17:24;100770.47;;;9.86;nan
63347;BME280;49472;49.880;8.650;2023-01-31T13:19:59;100777.06;;;10.33;nan
63347;BME280;49472;49.880;8.650;2023-01-31T13:22:31;100772.75;;;9.90;nan
63347;BME280;49472;49.880;8.650;2023-01-31T13:25:17;100762.00;;;10.57;nan
63347;BME280;49472;49.880;8.650;2023-01-31T13:27:55;100749.75;;;10.48;nan
63347;BME280;49472;49.880;8.650;2023-01-31T13:33:35;100741.53;;;10.71;nan
63347;BME280;49472;49.880;8.650;2023-01-31T13:38:39;100729.31;;;9.76;nan
63347;BME280;49472;49.880;8.650;2023-01-31T13:41:08;100733.41;;;10.07;nan
63347;BME280;49472;49.880;8.650;2023-01-31T13:43:35;100722.56;;;10.04;nan
63347;BME280;49472;49.880;8.650;2023-01-31T13:46:06;100745.75;;;9.72;nan
63347;BME280;49472;49.880;8.650;2023-01-31T13:48:41;100728.22;;;9.94;nan
63347;BME280;49472;49.880;8.650;2023-01-31T13:51:13;100744.84;;;9.87;nan
63347;BME280;49472;49.880;8.650;2023-01-31T13:53:49;100735.03;;;10.65;nan
63347;BME280;49472;49.880;8.650;2023-01-31T13:56:20;100736.25;;;10.46;nan
63347;BME280;49472;49.880;8.650;2023-01-31T13:58:47;100737.19;;;10.30;nan
63347;BME280;49472;49.880;8.650;2023-01-31T14:01:17;100722.94;;;10.40;nan
63347;BME280;49472;49.880;8.650;2023-01-31T14:19:58;100748.28;;;10.15;nan
63347;BME280;49472;49.880;8.650;2023-01-31T14:40:28;100742.28;;;10.30;nan
63347;BME280;49472;49.880;8.650;2023-01-31T14:56:53;100738.25;;;10.26;nan
63347;BME280;49472;49.880;8.650;2023-01-31T15:01:49;100732.63;;;9.92;nan
63347;BME280;49472;49.880;8.650;2023-01-31T15:04:20;100754.88;;;10.05;nan
63347;BME280;49472;49.880;8.650;2023-01-31T15:06:48;100740.09;;;10.10;nan
63347;BME280;49472;49.880;8.650;2023-01-31T15:11:49;100754.03;;;9.75;nan
63347;BME280;49472;49.880;8.650;2023-01-31T15:14:34;100769.22;;;9.32;nan
63347;BME280;49472;49.880;8.650;2023-01-31T15:19:35;100753.22;;;9.75;nan
63347;BME280;49472;49.880;8.650;2023-01-31T15:22:07;100749.41;;;9.82;nan
63347;BME280;49472;49.880;8.650;2023-01-31T15:24:37;100747.00;;;9.65;nan
63347;BME280;49472;49.880;8.650;2023-01-31T15:27:06;100753.28;;;9.73;nan
63347;BME280;49472;49.880;8.650;2023-01-31T15:29:48;100753.06;;;9.92;nan
63347;BME280;49472;49.880;8.650;2023-01-31T15:35:25;100765.19;;;9.44;nan
63347;BME280;49472;49.880;8.650;2023-01-31T15:40:40;100758.09;;;9.49;nan
63347;BME280;49472;49.880;8.650;2023-01-31T15:45:41;100754.22;;;9.72;nan
63347;BME280;49472;49.880;8.650;2023-01-31T15:48:15;100739.66;;;9.59;nan
63347;BME280;49472;49.880;8.650;2023-01-31T15:50:52;100746.25;;;9.63;nan
63347;BME280;49472;49.880;8.650;2023-01-31T15:53:21;100751.28;;;9.34;nan
63347;BME280;49472;49.880;8.650;2023-01-31T15:55:49;100768.03;;;9.08;nan
63347;BME280;49472;49.880;8.650;2023-01-31T15:58:20;100741.28;;;9.45;nan
63347;BME280;49472;49.880;8.650;2023-01-31T16:00:51;100739.66;;;9.44;nan
63347;BME280;49472;49.880;8.650;2023-01-31T16:03:21;100751.50;;;9.45;nan
63347;BME280;49472;49.880;8.650;2023-01-31T16:05:52;100748.75;;;9.48;nan
63347;BME280;49472;49.880;8.650;2023-01-31T16:08:30;100747.25;;;9.60;nan
63347;BME280;49472;49.880;8.650;2023-01-31T16:11:01;100731.50;;;9.96;nan
63347;BME280;49472;49.880;8.650;2023-01-31T16:13:29;100742.78;;;9.49;nan
63347;BME280;49472;49.880;8.650;2023-01-31T16:15:55;100744.41;;;9.50;nan
63347;BME280;49472;49.880;8.650;2023-01-31T16:18:21;100738.13;;;9.56;nan
63347;BME280;49472;49.880;8.650;2023-01-31T16:20:52;100734.66;;;9.57;nan
63347;BME280;49472;49.880;8.650;2023-01-31T16:23:29;100737.53;;;9.67;nan
63347;BME280;49472;49.880;8.650;2023-01-31T16:25:58;100748.16;;;9.59;nan